sensor_id;sensor_type;location;lat;lon;timestamp;pressure;altitude;pressure_sealevel;temperature;humidity
28911;BME280;16028;42.642;23.310;2023-02-24T00:00:56;93980.88;;;8.17;90.15
28911;BME280;16028;42.642;23.310;2023-02-24T00:03:26;93974.56;;;8.10;89.67
28911;BME280;16028;42.642;23.310;2023-02-24T00:05:54;93979.88;;;8.08;90.13
28911;BME280;16028;42.642;23.310;2023-02-24T00:08:21;93967.47;;;8.12;90.12
28911;BME280;16028;42.642;23.310;2023-02-24T00:10:47;93967.47;;;8.12;88.98
28911;BME280;16028;42.642;23.310;2023-02-24T00:13:14;93972.25;;;8.07;89.86
28911;BME280;16028;42.642;23.310;2023-02-24T00:15:46;93971.69;;;8.03;90.07
28911;BME280;16028;42.642;23.310;2023-02-24T00:18:22;93959.16;;;8.08;89.71
28911;BME280;16028;42.642;23.310;2023-02-24T00:20:49;93964.31;;;7.98;90.10
28911;BME280;16028;42.642;23.310;2023-02-24T00:23:18;93965.69;;;7.93;90.27
28911;BME280;16028;42.642;23.310;2023-02-24T00:25:45;93981.06;;;7.94;90.19
28911;BME280;16028;42.642;23.310;2023-02-24T00:28:11;93968.38;;;7.91;90.50
28911;BME280;16028;42.642;23.310;2023-02-24T00:30:38;93972.25;;;7.97;90.48
28911;BME280;16028;42.642;23.310;2023-02-24T00:33:04;93964.03;;;7.92;89.84
28911;BME280;16028;42.642;23.310;2023-02-24T00:35:31;93968.53;;;7.90;90.42
28911;BME280;16028;42.642;23.310;2023-02-24T00:37:59;93963.22;;;7.91;90.35
28911;BME280;16028;42.642;23.310;2023-02-24T00:40:26;93952.84;;;7.91;90.33
28911;BME280;16028;42.642;23.310;2023-02-24T00:42:54;93958.03;;;7.91;90.34
28911;BME280;16028;42.642;23.310;2023-02-24T00:45:20;93960.75;;;7.90;89.83
28911;BME280;16028;42.642;23.310;2023-02-24T00:47:47;93956.69;;;7.87;90.90
28911;BME280;16028;42.642;23.310;2023-02-24T00:50:13;93953.38;;;7.85;90.54
28911;BME280;16028;42.642;23.310;2023-02-24T00:52:41;93957.06;;;7.83;90.31
28911;BME280;16028;42.642;23.310;2023-02-24T00:55:08;93953.81;;;7.81;90.49
28911;BME280;16028;42.642;23.310;2023-02-24T00:57:40;93948.34;;;7.84;90.32
28911;BME280;16028;42.642;23.310;2023-02-24T01:00:07;93948.34;;;7.84;90.59
28911;BME280;16028;42.642;23.310;2023-02-24T01:02:38;93945.75;;;7.74;90.13
28911;BME280;16028;42.642;23.310;2023-02-24T01:05:04;93952.41;;;7.77;91.09
28911;BME280;16028;42.642;23.310;2023-02-24T01:07:33;93945.75;;;7.74;91.19
28911;BME280;16028;42.642;23.310;2023-02-24T01:10:00;93948.88;;;7.78;90.67
28911;BME280;16028;42.642;23.310;2023-02-24T01:12:26;93947.50;;;7.74;90.77
28911;BME280;16028;42.642;23.310;2023-02-24T01:15:15;93952.69;;;7.74;90.95
28911;BME280;16028;42.642;23.310;2023-02-24T01:17:42;93942.31;;;7.74;90.51
28911;BME280;16028;42.642;23.310;2023-02-24T01:20:09;93939.75;;;7.74;91.02
28911;BME280;16028;42.642;23.310;2023-02-24T01:22:40;93935.22;;;7.76;90.75
28911;BME280;16028;42.642;23.310;2023-02-24T01:25:07;93933.75;;;7.73;90.34
28911;BME280;16028;42.642;23.310;2023-02-24T01:27:34;93941.38;;;7.75;90.29
28911;BME280;16028;42.642;23.310;2023-02-24T01:30:01;93934.16;;;7.69;90.57
28911;BME280;16028;42.642;23.310;2023-02-24T01:32:30;93922.16;;;7.68;90.96
28911;BME280;16028;42.642;23.310;2023-02-24T01:34:56;93930.28;;;7.63;90.61
28911;BME280;16028;42.642;23.310;2023-02-24T01:37:24;93916.81;;;7.60;91.39
28911;BME280;16028;42.642;23.310;2023-02-24T01:39:50;93928.25;;;7.57;91.62
28911;BME280;16028;42.642;23.310;2023-02-24T01:42:19;93916.81;;;7.60;91.01
28911;BME280;16028;42.642;23.310;2023-02-24T01:45:03;93927.41;;;7.57;91.50
28911;BME280;16028;42.642;23.310;2023-02-24T01:47:32;93921.19;;;7.59;90.39
28911;BME280;16028;42.642;23.310;2023-02-24T01:49:58;93917.06;;;7.57;90.87
28911;BME280;16028;42.642;23.310;2023-02-24T01:52:28;93916.94;;;7.58;90.25
28911;BME280;16028;42.642;23.310;2023-02-24T01:54:57;93918.16;;;7.54;90.51
28911;BME280;16028;42.642;23.310;2023-02-24T01:57:27;93918.72;;;7.58;90.66
28911;BME280;16028;42.642;23.310;2023-02-24T01:59:55;93921.97;;;7.60;90.07
28911;BME280;16028;42.642;23.310;2023-02-24T02:02:26;93923.78;;;7.59;89.76
28911;BME280;16028;42.642;23.310;2023-02-24T02:04:56;93926.84;;;7.53;89.98
28911;BME280;16028;42.642;23.310;2023-02-24T02:07:23;93921.16;;;7.50;89.99
28911;BME280;16028;42.642;23.310;2023-02-24T02:09:52;93920.88;;;7.53;90.63
28911;BME280;16028;42.642;23.310;2023-02-24T02:12:19;93922.94;;;7.59;89.95
28911;BME280;16028;42.642;23.310;2023-02-24T02:14:47;93919.53;;;7.58;89.57
28911;BME280;16028;42.642;23.310;2023-02-24T02:17:17;93920.47;;;7.57;89.77
28911;BME280;16028;42.642;23.310;2023-02-24T02:19:58;93922.91;;;7.49;89.87
28911;BME280;16028;42.642;23.310;2023-02-24T02:22:54;93918.16;;;7.54;89.95
28911;BME280;16028;42.642;23.310;2023-02-24T02:25:30;93926.19;;;7.51;90.47
28911;BME280;16028;42.642;23.310;2023-02-24T02:28:07;93928.22;;;7.47;89.57
28911;BME280;16028;42.642;23.310;2023-02-24T02:33:53;93930.41;;;7.52;89.61
28911;BME280;16028;42.642;23.310;2023-02-24T02:36:30;93923.59;;;7.51;89.35
28911;BME280;16028;42.642;23.310;2023-02-24T02:39:03;93921.00;;;7.51;89.48
28911;BME280;16028;42.642;23.310;2023-02-24T02:41:33;93925.91;;;7.54;89.73
28911;BME280;16028;42.642;23.310;2023-02-24T02:44:03;93932.19;;;7.52;89.67
28911;BME280;16028;42.642;23.310;2023-02-24T02:46:33;93931.50;;;7.50;89.02
28911;BME280;16028;42.642;23.310;2023-02-24T02:49:05;93928.22;;;7.47;89.33
28911;BME280;16028;42.642;23.310;2023-02-24T02:51:37;93928.22;;;7.47;90.21
28911;BME280;16028;42.642;23.310;2023-02-24T02:54:07;93928.34;;;7.46;89.47
28911;BME280;16028;42.642;23.310;2023-02-24T02:56:36;93920.84;;;7.43;89.45
28911;BME280;16028;42.642;23.310;2023-02-24T02:59:05;93917.56;;;7.41;89.98
28911;BME280;16028;42.642;23.310;2023-02-24T03:01:36;93914.59;;;7.45;90.20
28911;BME280;16028;42.642;23.310;2023-02-24T03:04:07;93917.19;;;7.45;89.69
28911;BME280;16028;42.642;23.310;2023-02-24T03:06:36;93909.41;;;7.45;89.30
28911;BME280;16028;42.642;23.310;2023-02-24T03:09:05;93909.94;;;7.39;89.65
28911;BME280;16028;42.642;23.310;2023-02-24T03:11:36;93913.06;;;7.33;89.65
28911;BME280;16028;42.642;23.310;2023-02-24T03:14:03;93911.97;;;7.36;90.07
28911;BME280;16028;42.642;23.310;2023-02-24T03:16:31;93915.13;;;7.39;89.29
28911;BME280;16028;42.642;23.310;2023-02-24T03:19:01;93918.78;;;7.37;89.83
28911;BME280;16028;42.642;23.310;2023-02-24T03:21:31;93918.66;;;7.38;89.52
28911;BME280;16028;42.642;23.310;2023-02-24T03:23:59;93921.22;;;7.38;90.29
28911;BME280;16028;42.642;23.310;2023-02-24T03:26:27;93916.88;;;7.39;90.04
28911;BME280;16028;42.642;23.310;2023-02-24T03:28:56;93920.72;;;7.44;89.93
28911;BME280;16028;42.642;23.310;2023-02-24T03:31:24;93918.28;;;7.43;90.09
28911;BME280;16028;42.642;23.310;2023-02-24T03:33:54;93915.41;;;7.46;89.69
28911;BME280;16028;42.642;23.310;2023-02-24T03:36:24;93915.97;;;7.50;89.29
28911;BME280;16028;42.642;23.310;2023-02-24T03:38:53;93922.78;;;7.51;89.02
28911;BME280;16028;42.642;23.310;2023-02-24T03:41:22;93913.13;;;7.53;89.02
28911;BME280;16028;42.642;23.310;2023-02-24T03:43:50;93915.16;;;7.49;89.44
28911;BME280;16028;42.642;23.310;2023-02-24T03:46:17;93911.47;;;7.52;89.41
28911;BME280;16028;42.642;23.310;2023-02-24T03:48:45;93912.31;;;7.52;90.09
28911;BME280;16028;42.642;23.310;2023-02-24T03:51:14;93908.88;;;7.52;89.55
28911;BME280;16028;42.642;23.310;2023-02-24T03:53:44;93906.97;;;7.54;89.34
28911;BME280;16028;42.642;23.310;2023-02-24T03:56:18;93912.44;;;7.60;88.69
28911;BME280;16028;42.642;23.310;2023-02-24T03:58:54;93907.00;;;7.63;89.02
28911;BME280;16028;42.642;23.310;2023-02-24T04:01:27;93902.94;;;7.70;87.11
28911;BME280;16028;42.642;23.310;2023-02-24T04:03:58;93907.28;;;7.60;88.05
28911;BME280;16028;42.642;23.310;2023-02-24T04:06:30;93914.09;;;7.61;87.61
28911;BME280;16028;42.642;23.310;2023-02-24T04:09:00;93920.94;;;7.72;86.12
28911;BME280;16028;42.642;23.310;2023-02-24T04:11:31;93920.22;;;7.60;86.75
28911;BME280;16028;42.642;23.310;2023-02-24T04:14:02;93909.31;;;7.57;87.47
28911;BME280;16028;42.642;23.310;2023-02-24T04:16:33;93917.31;;;7.54;87.23
28911;BME280;16028;42.642;23.310;2023-02-24T04:19:05;93910.94;;;7.58;86.13
28911;BME280;16028;42.642;23.310;2023-02-24T04:21:34;93914.72;;;7.44;86.19
28911;BME280;16028;42.642;23.310;2023-02-24T04:24:03;93920.19;;;7.51;85.63
28911;BME280;16028;42.642;23.310;2023-02-24T04:26:36;93908.59;;;7.45;86.70
28911;BME280;16028;42.642;23.310;2023-02-24T04:29:04;93909.72;;;7.52;86.07
28911;BME280;16028;42.642;23.310;2023-02-24T04:31:31;93902.34;;;7.47;86.10
28911;BME280;16028;42.642;23.310;2023-02-24T04:33:59;93902.47;;;7.46;85.63
28911;BME280;16028;42.642;23.310;2023-02-24T04:36:26;93895.94;;;7.42;86.05
28911;BME280;16028;42.642;23.310;2023-02-24T04:38:52;93892.81;;;7.48;86.26
28911;BME280;16028;42.642;23.310;2023-02-24T04:41:19;93895.81;;;7.53;85.94
28911;BME280;16028;42.642;23.310;2023-02-24T04:43:48;93894.44;;;7.49;86.53
28911;BME280;16028;42.642;23.310;2023-02-24T04:46:16;93888.31;;;7.60;83.88
28911;BME280;16028;42.642;23.310;2023-02-24T04:48:42;93888.19;;;7.52;84.48
28911;BME280;16028;42.642;23.310;2023-02-24T04:51:09;93883.69;;;7.54;84.19
28911;BME280;16028;42.642;23.310;2023-02-24T04:53:35;93883.41;;;7.47;84.93
28911;BME280;16028;42.642;23.310;2023-02-24T04:56:02;93882.84;;;7.43;85.35
28911;BME280;16028;42.642;23.310;2023-02-24T04:58:33;93886.69;;;7.49;84.69
28911;BME280;16028;42.642;23.310;2023-02-24T05:01:05;93883.53;;;7.45;84.71
28911;BME280;16028;42.642;23.310;2023-02-24T05:03:32;93886.25;;;7.44;85.23
28911;BME280;16028;42.642;23.310;2023-02-24T05:06:00;93883.53;;;7.45;85.76
28911;BME280;16028;42.642;23.310;2023-02-24T05:08:27;93887.91;;;7.45;86.25
28911;BME280;16028;42.642;23.310;2023-02-24T05:10:54;93885.75;;;7.60;85.48
28911;BME280;16028;42.642;23.310;2023-02-24T05:13:23;93890.09;;;7.50;85.25
28911;BME280;16028;42.642;23.310;2023-02-24T05:15:52;93892.25;;;7.44;86.23
28911;BME280;16028;42.642;23.310;2023-02-24T05:18:20;93899.88;;;7.46;86.55
28911;BME280;16028;42.642;23.310;2023-02-24T05:20:48;93897.41;;;7.44;86.59
28911;BME280;16028;42.642;23.310;2023-02-24T05:23:33;93908.34;;;7.58;85.82
28911;BME280;16028;42.642;23.310;2023-02-24T05:26:00;93900.44;;;7.50;85.55
28911;BME280;16028;42.642;23.310;2023-02-24T05:28:27;93900.31;;;7.51;86.12
28911;BME280;16028;42.642;23.310;2023-02-24T05:31:02;93897.59;;;7.53;86.73
28911;BME280;16028;42.642;23.310;2023-02-24T05:33:31;93900.84;;;7.55;86.08
28911;BME280;16028;42.642;23.310;2023-02-24T05:36:00;93896.34;;;7.57;86.20
28911;BME280;16028;42.642;23.310;2023-02-24T05:38:27;93909.75;;;7.62;85.84
28911;BME280;16028;42.642;23.310;2023-02-24T05:40:54;93906.34;;;7.61;85.91
28911;BME280;16028;42.642;23.310;2023-02-24T05:43:28;93899.13;;;7.65;86.15
28911;BME280;16028;42.642;23.310;2023-02-24T05:45:55;93909.06;;;7.69;85.85
28911;BME280;16028;42.642;23.310;2023-02-24T05:48:25;93907.56;;;7.67;85.70
28911;BME280;16028;42.642;23.310;2023-02-24T05:50:54;93902.38;;;7.67;85.91
28911;BME280;16028;42.642;23.310;2023-02-24T05:53:20;93908.13;;;7.70;86.08
28911;BME280;16028;42.642;23.310;2023-02-24T05:55:47;93909.75;;;7.62;86.14
28911;BME280;16028;42.642;23.310;2023-02-24T05:58:14;93913.00;;;7.64;87.00
28911;BME280;16028;42.642;23.310;2023-02-24T06:00:41;93902.91;;;7.61;86.21
28911;BME280;16028;42.642;23.310;2023-02-24T06:03:10;93907.00;;;7.63;86.80
28911;BME280;16028;42.642;23.310;2023-02-24T06:05:41;93909.59;;;7.63;86.38
28911;BME280;16028;42.642;23.310;2023-02-24T06:08:09;93906.19;;;7.63;86.58
28911;BME280;16028;42.642;23.310;2023-02-24T06:10:36;93913.28;;;7.70;86.85
28911;BME280;16028;42.642;23.310;2023-02-24T06:13:04;93917.25;;;7.74;86.49
28911;BME280;16028;42.642;23.310;2023-02-24T06:15:31;93925.41;;;7.70;86.54
28911;BME280;16028;42.642;23.310;2023-02-24T06:17:58;93927.06;;;7.71;86.28
28911;BME280;16028;42.642;23.310;2023-02-24T06:20:26;93913.03;;;7.83;87.05
28911;BME280;16028;42.642;23.310;2023-02-24T06:22:53;93913.47;;;7.88;85.24
28911;BME280;16028;42.642;23.310;2023-02-24T06:25:23;93932.25;;;7.71;85.38
28911;BME280;16028;42.642;23.310;2023-02-24T06:27:51;93933.44;;;7.67;86.74
28911;BME280;16028;42.642;23.310;2023-02-24T06:30:20;93928.44;;;7.75;86.36
28911;BME280;16028;42.642;23.310;2023-02-24T06:32:47;93933.44;;;7.67;86.85
28911;BME280;16028;42.642;23.310;2023-02-24T06:35:15;93921.72;;;7.63;87.50
28911;BME280;16028;42.642;23.310;2023-02-24T06:37:41;93921.84;;;7.61;87.53
28911;BME280;16028;42.642;23.310;2023-02-24T06:40:09;93930.88;;;7.76;87.72
28911;BME280;16028;42.642;23.310;2023-02-24T06:42:44;93926.78;;;7.74;86.55
28911;BME280;16028;42.642;23.310;2023-02-24T06:45:11;93925.31;;;7.81;86.81
28911;BME280;16028;42.642;23.310;2023-02-24T06:47:37;93926.25;;;7.80;86.80
28911;BME280;16028;42.642;23.310;2023-02-24T06:50:05;93919.28;;;7.71;87.55
28911;BME280;16028;42.642;23.310;2023-02-24T06:52:32;93917.78;;;7.68;87.79
28911;BME280;16028;42.642;23.310;2023-02-24T06:54:58;93918.91;;;7.75;88.43
28911;BME280;16028;42.642;23.310;2023-02-24T06:57:25;93922.03;;;7.79;87.07
28911;BME280;16028;42.642;23.310;2023-02-24T06:59:54;93916.44;;;7.74;87.52
28911;BME280;16028;42.642;23.310;2023-02-24T07:02:20;93905.53;;;7.80;87.41
28911;BME280;16028;42.642;23.310;2023-02-24T07:04:50;93895.19;;;7.80;87.69
28911;BME280;16028;42.642;23.310;2023-02-24T07:07:19;93902.69;;;7.83;87.39
28911;BME280;16028;42.642;23.310;2023-02-24T07:09:46;93899.56;;;7.89;87.69
28911;BME280;16028;42.642;23.310;2023-02-24T07:12:13;93900.94;;;7.93;87.51
28911;BME280;16028;42.642;23.310;2023-02-24T07:14:44;93894.00;;;8.03;86.28
28911;BME280;16028;42.642;23.310;2023-02-24T07:17:16;93892.38;;;8.21;83.15
28911;BME280;16028;42.642;23.310;2023-02-24T07:19:43;93904.50;;;8.11;83.71
28911;BME280;16028;42.642;23.310;2023-02-24T07:22:10;93896.16;;;8.08;84.94
28911;BME280;16028;42.642;23.310;2023-02-24T07:24:39;93892.63;;;8.09;84.55
28911;BME280;16028;42.642;23.310;2023-02-24T07:27:11;93896.31;;;7.96;84.81
28911;BME280;16028;42.642;23.310;2023-02-24T07:29:46;93898.06;;;7.96;86.00
28911;BME280;16028;42.642;23.310;2023-02-24T07:32:13;93900.69;;;8.15;83.19
28911;BME280;16028;42.642;23.310;2023-02-24T07:34:41;93898.06;;;7.96;83.23
28911;BME280;16028;42.642;23.310;2023-02-24T07:37:08;93893.56;;;7.88;84.19
28911;BME280;16028;42.642;23.310;2023-02-24T07:39:35;93890.19;;;7.88;84.71
28911;BME280;16028;42.642;23.310;2023-02-24T07:42:04;93894.66;;;7.86;84.94
28911;BME280;16028;42.642;23.310;2023-02-24T07:44:31;93891.53;;;8.11;83.88
28911;BME280;16028;42.642;23.310;2023-02-24T07:46:58;93898.91;;;7.96;84.51
28911;BME280;16028;42.642;23.310;2023-02-24T07:49:24;93899.31;;;8.02;83.68
28911;BME280;16028;42.642;23.310;2023-02-24T07:51:55;93902.16;;;7.98;83.62
28911;BME280;16028;42.642;23.310;2023-02-24T07:54:22;93897.69;;;7.91;85.14
28911;BME280;16028;42.642;23.310;2023-02-24T07:56:49;93898.22;;;8.14;83.45
28911;BME280;16028;42.642;23.310;2023-02-24T07:59:23;93893.72;;;8.06;83.66
28911;BME280;16028;42.642;23.310;2023-02-24T08:01:50;93884.03;;;7.98;83.55
28911;BME280;16028;42.642;23.310;2023-02-24T08:04:20;93885.94;;;7.96;84.44
28911;BME280;16028;42.642;23.310;2023-02-24T08:06:48;93884.75;;;8.01;84.79
28911;BME280;16028;42.642;23.310;2023-02-24T08:09:22;93880.22;;;8.03;85.94
28911;BME280;16028;42.642;23.310;2023-02-24T08:12:09;93876.69;;;8.04;85.69
28911;BME280;16028;42.642;23.310;2023-02-24T08:14:35;93881.88;;;8.23;83.60
28911;BME280;16028;42.642;23.310;2023-02-24T08:17:08;93869.06;;;8.21;83.25
28911;BME280;16028;42.642;23.310;2023-02-24T08:19:35;93864.97;;;8.19;84.01
28911;BME280;16028;42.642;23.310;2023-02-24T08:22:05;93863.19;;;8.19;84.66
28911;BME280;16028;42.642;23.310;2023-02-24T08:24:44;93864.28;;;8.26;84.52
28911;BME280;16028;42.642;23.310;2023-02-24T08:27:14;93865.66;;;8.40;82.65
28911;BME280;16028;42.642;23.310;2023-02-24T08:29:44;93864.31;;;8.36;83.42
28911;BME280;16028;42.642;23.310;2023-02-24T08:32:23;93859.38;;;8.42;83.30
28911;BME280;16028;42.642;23.310;2023-02-24T08:34:49;93864.41;;;8.54;82.21
28911;BME280;16028;42.642;23.310;2023-02-24T08:37:21;93865.31;;;8.72;81.75
28911;BME280;16028;42.642;23.310;2023-02-24T08:39:48;93859.25;;;8.90;81.16
28911;BME280;16028;42.642;23.310;2023-02-24T08:42:18;93863.91;;;8.96;79.88
28911;BME280;16028;42.642;23.310;2023-02-24T08:44:44;93864.59;;;8.89;80.68
28911;BME280;16028;42.642;23.310;2023-02-24T08:47:14;93855.84;;;8.99;80.58
28911;BME280;16028;42.642;23.310;2023-02-24T08:49:45;93863.75;;;8.98;80.46
28911;BME280;16028;42.642;23.310;2023-02-24T08:52:13;93860.47;;;9.06;80.46
28911;BME280;16028;42.642;23.310;2023-02-24T08:54:39;93856.47;;;9.11;78.22
28911;BME280;16028;42.642;23.310;2023-02-24T08:57:13;93863.09;;;8.96;80.44
28911;BME280;16028;42.642;23.310;2023-02-24T08:59:42;93867.44;;;9.05;80.04
28911;BME280;16028;42.642;23.310;2023-02-24T09:02:15;93867.00;;;9.00;80.28
28911;BME280;16028;42.642;23.310;2023-02-24T09:04:49;93869.91;;;8.97;82.53
28911;BME280;16028;42.642;23.310;2023-02-24T09:07:17;93863.63;;;8.99;83.08
28911;BME280;16028;42.642;23.310;2023-02-24T09:09:44;93858.75;;;9.24;80.92
28911;BME280;16028;42.642;23.310;2023-02-24T09:12:12;93856.97;;;9.24;79.37
28911;BME280;16028;42.642;23.310;2023-02-24T09:14:47;93859.16;;;9.19;81.07
28911;BME280;16028;42.642;23.310;2023-02-24T09:17:15;93859.56;;;9.24;81.01
28911;BME280;16028;42.642;23.310;2023-02-24T09:19:45;93859.47;;;9.43;79.74
28911;BME280;16028;42.642;23.310;2023-02-24T09:22:31;93853.34;;;9.44;78.62
28911;BME280;16028;42.642;23.310;2023-02-24T09:25:05;93844.97;;;9.68;78.28
28911;BME280;16028;42.642;23.310;2023-02-24T09:27:46;93848.81;;;9.64;77.53
28911;BME280;16028;42.642;23.310;2023-02-24T09:30:18;93844.75;;;9.62;77.94
28911;BME280;16028;42.642;23.310;2023-02-24T09:33:06;93844.63;;;9.81;76.07
28911;BME280;16028;42.642;23.310;2023-02-24T09:35:41;93846.38;;;9.63;77.55
28911;BME280;16028;42.642;23.310;2023-02-24T09:38:10;93843.03;;;9.70;78.25
28911;BME280;16028;42.642;23.310;2023-02-24T09:40:40;93838.59;;;9.80;76.69
28911;BME280;16028;42.642;23.310;2023-02-24T09:43:13;93841.03;;;9.64;77.11
28911;BME280;16028;42.642;23.310;2023-02-24T09:45:47;93839.94;;;9.67;77.14
28911;BME280;16028;42.642;23.310;2023-02-24T09:48:21;93842.81;;;9.64;75.86
28911;BME280;16028;42.642;23.310;2023-02-24T09:50:49;93843.34;;;9.67;77.11
28911;BME280;16028;42.642;23.310;2023-02-24T09:53:28;93833.53;;;9.61;78.03
28911;BME280;16028;42.642;23.310;2023-02-24T09:56:04;93833.94;;;9.84;76.44
28911;BME280;16028;42.642;23.310;2023-02-24T09:58:38;93828.91;;;9.82;76.67
28911;BME280;16028;42.642;23.310;2023-02-24T10:04:01;93827.41;;;9.80;76.56
28911;BME280;16028;42.642;23.310;2023-02-24T10:06:34;93824.00;;;9.79;76.05
28911;BME280;16028;42.642;23.310;2023-02-24T10:09:02;93815.09;;;9.99;76.01
28911;BME280;16028;42.642;23.310;2023-02-24T10:11:37;93816.59;;;10.20;74.28
28911;BME280;16028;42.642;23.310;2023-02-24T10:14:05;93814.06;;;10.10;76.05
28911;BME280;16028;42.642;23.310;2023-02-24T10:16:43;93808.06;;;10.27;75.98
28911;BME280;16028;42.642;23.310;2023-02-24T10:19:25;93795.56;;;10.31;74.38
28911;BME280;16028;42.642;23.310;2023-02-24T10:21:53;93795.56;;;10.31;75.59
28911;BME280;16028;42.642;23.310;2023-02-24T10:24:28;93784.28;;;10.40;76.18
28911;BME280;16028;42.642;23.310;2023-02-24T10:27:00;93781.41;;;10.51;74.76
28911;BME280;16028;42.642;23.310;2023-02-24T10:29:31;93774.44;;;10.51;74.15
28911;BME280;16028;42.642;23.310;2023-02-24T10:32:06;93766.84;;;10.58;73.68
28911;BME280;16028;42.642;23.310;2023-02-24T10:34:48;93765.97;;;10.75;71.60
28911;BME280;16028;42.642;23.310;2023-02-24T10:37:16;93755.03;;;10.72;72.36
28911;BME280;16028;42.642;23.310;2023-02-24T10:39:45;93752.59;;;10.70;71.90
28911;BME280;16028;42.642;23.310;2023-02-24T10:42:21;93757.25;;;10.58;73.31
28911;BME280;16028;42.642;23.310;2023-02-24T10:44:48;93757.88;;;10.52;73.46
28911;BME280;16028;42.642;23.310;2023-02-24T10:47:18;93748.75;;;10.56;74.10
28911;BME280;16028;42.642;23.310;2023-02-24T10:49:56;93735.56;;;10.50;72.86
28911;BME280;16028;42.642;23.310;2023-02-24T10:52:28;93735.94;;;10.55;73.10
28911;BME280;16028;42.642;23.310;2023-02-24T10:55:03;93741.53;;;10.42;74.15
28911;BME280;16028;42.642;23.310;2023-02-24T10:57:48;93744.97;;;10.43;74.31
28911;BME280;16028;42.642;23.310;2023-02-24T11:00:19;93737.06;;;10.52;73.81
28911;BME280;16028;42.642;23.310;2023-02-24T11:03:15;93727.53;;;10.69;73.07
28911;BME280;16028;42.642;23.310;2023-02-24T11:06:02;93725.88;;;10.60;72.95
28911;BME280;16028;42.642;23.310;2023-02-24T11:08:55;93723.34;;;10.76;72.18
28911;BME280;16028;42.642;23.310;2023-02-24T11:11:42;93709.63;;;10.58;73.37
28911;BME280;16028;42.642;23.310;2023-02-24T11:14:26;93711.94;;;10.69;73.32
28911;BME280;16028;42.642;23.310;2023-02-24T11:17:15;93708.22;;;10.72;72.92
28911;BME280;16028;42.642;23.310;2023-02-24T11:19:46;93702.72;;;10.75;73.34
28911;BME280;16028;42.642;23.310;2023-02-24T11:22:15;93693.00;;;10.85;71.88
28911;BME280;16028;42.642;23.310;2023-02-24T11:24:43;93687.78;;;10.85;74.50
28911;BME280;16028;42.642;23.310;2023-02-24T11:27:10;93683.94;;;11.05;71.77
28911;BME280;16028;42.642;23.310;2023-02-24T11:29:41;93685.41;;;10.99;71.91
28911;BME280;16028;42.642;23.310;2023-02-24T11:32:23;93675.00;;;11.07;71.78
28911;BME280;16028;42.642;23.310;2023-02-24T11:34:55;93676.50;;;11.18;72.91
28911;BME280;16028;42.642;23.310;2023-02-24T11:37:32;93671.00;;;11.29;71.70
28911;BME280;16028;42.642;23.310;2023-02-24T11:40:03;93664.16;;;11.36;72.12
28911;BME280;16028;42.642;23.310;2023-02-24T11:42:35;93651.50;;;11.57;73.57
28911;BME280;16028;42.642;23.310;2023-02-24T11:45:03;93644.84;;;11.79;72.73
28911;BME280;16028;42.642;23.310;2023-02-24T11:47:35;93638.31;;;11.91;72.48
28911;BME280;16028;42.642;23.310;2023-02-24T11:50:22;93637.97;;;12.02;71.96
28911;BME280;16028;42.642;23.310;2023-02-24T11:52:53;93632.06;;;12.25;72.60
28911;BME280;16028;42.642;23.310;2023-02-24T11:55:23;93620.53;;;12.58;69.71
28911;BME280;16028;42.642;23.310;2023-02-24T11:57:52;93616.63;;;12.62;69.38
28911;BME280;16028;42.642;23.310;2023-02-24T12:00:20;93609.06;;;12.75;67.00
28911;BME280;16028;42.642;23.310;2023-02-24T12:02:50;93620.25;;;12.92;68.13
28911;BME280;16028;42.642;23.310;2023-02-24T12:05:19;93607.81;;;12.94;66.21
28911;BME280;16028;42.642;23.310;2023-02-24T12:07:49;93600.97;;;12.93;65.88
28911;BME280;16028;42.642;23.310;2023-02-24T12:10:20;93598.81;;;12.96;68.28
28911;BME280;16028;42.642;23.310;2023-02-24T12:12:50;93599.78;;;13.03;64.11
28911;BME280;16028;42.642;23.310;2023-02-24T12:15:21;93588.81;;;13.08;63.29
28911;BME280;16028;42.642;23.310;2023-02-24T12:17:51;93584.31;;;12.94;64.14
28911;BME280;16028;42.642;23.310;2023-02-24T12:20:24;93585.50;;;12.83;66.92
28911;BME280;16028;42.642;23.310;2023-02-24T12:22:54;93582.56;;;12.86;66.55
28911;BME280;16028;42.642;23.310;2023-02-24T12:25:24;93583.63;;;13.00;69.39
28911;BME280;16028;42.642;23.310;2023-02-24T12:27:56;93582.94;;;13.06;67.50
28911;BME280;16028;42.642;23.310;2023-02-24T12:30:36;93570.16;;;13.19;63.97
28911;BME280;16028;42.642;23.310;2023-02-24T12:35:56;93588.22;;;13.29;65.64
28911;BME280;16028;42.642;23.310;2023-02-24T12:38:31;93569.06;;;13.36;62.12
28911;BME280;16028;42.642;23.310;2023-02-24T12:41:04;93578.81;;;13.19;63.59
28911;BME280;16028;42.642;23.310;2023-02-24T12:43:37;93575.28;;;13.04;64.61
28911;BME280;16028;42.642;23.310;2023-02-24T12:46:12;93585.53;;;13.14;63.03
28911;BME280;16028;42.642;23.310;2023-02-24T12:48:51;93584.09;;;13.03;63.85
28911;BME280;16028;42.642;23.310;2023-02-24T12:51:24;93588.84;;;13.00;65.84
28911;BME280;16028;42.642;23.310;2023-02-24T12:53:54;93576.44;;;13.02;66.56
28911;BME280;16028;42.642;23.310;2023-02-24T12:56:25;93565.47;;;13.14;65.95
28911;BME280;16028;42.642;23.310;2023-02-24T12:58:57;93570.56;;;13.00;67.93
28911;BME280;16028;42.642;23.310;2023-02-24T13:01:27;93572.59;;;12.90;72.27
28911;BME280;16028;42.642;23.310;2023-02-24T13:03:59;93560.75;;;13.02;71.57
28911;BME280;16028;42.642;23.310;2023-02-24T13:06:36;93559.41;;;12.83;70.17
28911;BME280;16028;42.642;23.310;2023-02-24T13:09:07;93562.72;;;12.77;72.86
28911;BME280;16028;42.642;23.310;2023-02-24T13:11:41;93553.13;;;13.00;69.67
28911;BME280;16028;42.642;23.310;2023-02-24T13:14:13;93556.34;;;12.80;72.12
28911;BME280;16028;42.642;23.310;2023-02-24T13:16:41;93555.88;;;12.76;72.75
28911;BME280;16028;42.642;23.310;2023-02-24T13:19:16;93548.13;;;12.91;72.49
28911;BME280;16028;42.642;23.310;2023-02-24T13:21:53;93549.53;;;13.01;70.43
28911;BME280;16028;42.642;23.310;2023-02-24T13:24:20;93543.06;;;13.20;70.34